Orchard Park, NY (14127)

4:41 PM EST on January 29, 2015 (GMT -0500)
Hawthorne Dr. | Change Station
CLOSE
Current Station
Personal Weather Station
Location: Orchard Park, NY
Elevation: 787 ft
Nearby Weather Stations
Active Advisory: Winter Weather Advisory

Elev 787 ft 42.78 °N, 78.74 °W | Updated 6 seconds ago

Overcast
Overcast
33.9 °F
Feels Like 34 °F
N
0.0
Wind Variable Wind from SSW
Gusts 5.0 mph

Today
High -- | Low -- °F
--% Chance of Precip.
Yesterday
High -- | Low -- °F
Precip. -- in
7:32 AM 5:23 PM
Waxing Gibbous, 77% visible
Pressure 29.72 in
Visibility 4.0 miles
Clouds Few 700 ft
Scattered Clouds 1400 ft
Overcast 2200 ft
Windchill 34 °F
Dew Point 32 °F
Humidity 91%
Rainfall 0.00 in
Snow Depth Not available.
UV 0 out of 12
Pollen .10 out of 12
Air Quality Not available.
Flu Activity Not available.
SPECI KBUF 292105Z 20014KT 4SM -SN BR FEW007 SCT014 OVC022 01/M01 A2972 RMK AO2 P0000 T00061011

More Conditions Fewer Conditions

Pressure 29.72 in
Visibility 4.0 miles
Clouds Few 700 ft
Scattered Clouds 1400 ft
Overcast 2200 ft
Windchill 34 °F
Dew Point 32 °F
Humidity 91%
Rainfall 0.00 in
Snow Depth Not available.
UV 0 out of 12
Pollen .10 out of 12
Air Quality Not available.
Flu Activity Not available.
SPECI KBUF 292105Z 20014KT 4SM -SN BR FEW007 SCT014 OVC022 01/M01 A2972 RMK AO2 P0000 T00061011

More Conditions Fewer Conditions

10-Day Weather Forecast

Almanac

Astronomy

Jan. 29, 2015 Rise Set
Actual Time
Civil Twilight
Nautical Twilight
Astronomical Twilight
Moon
Length of Visible Light
Length of Day
Tomorrow will be .
, % of the Moon is Illuminated

Today's Extremes

State Highs State Lows

Community

WunderPhotos

Upload Photos

1,791,615 photos uploaded!

WunderBlogs® & News

Nearby

Air Quality

  Air Quality AQ Index Pollutant
Not available.

Snow Depth

Station Depth Elevation

Earthquake Activity

City Distance Mag. Time & Date
Minimum magnitude displayed is 2.5.

Coastal Water Temperatures

Place Temperature

Nearby Weather Stations